Time;durP1;ratioP1;P1;durP2;ratioP2;P2;SDS_P1;SDS_P2;PMS_P1;PMS_P2;Temp;Humidity;BMP_temperature;BMP_pressure;BME280_temperature;BME280_humidity;BME280_pressure;Samples;Min_cycle;Max_cycle;Signal;HPM_P1;HPM_P2
2023/06/12 00:02:17;;;;;;;4.47;1.10;;;;;;;16.50;70.89;99526.28;5035230;28;20049;-63
2023/06/12 00:04:48;;;;;;;1.10;1.00;;;;;;;16.47;71.08;99535.81;5036790;28;20499;-62
2023/06/12 00:07:17;;;;;;;0.43;0.43;;;;;;;16.41;71.48;99528.25;5035506;28;20439;-62
2023/06/12 00:09:46;;;;;;;0.70;0.70;;;;;;;16.34;71.67;99524.97;5036371;28;20077;-62
2023/06/12 00:12:15;;;;;;;0.40;0.40;;;;;;;16.31;72.00;99524.22;5036235;28;20044;-62
2023/06/12 00:14:44;;;;;;;1.20;1.10;;;;;;;16.33;71.72;99528.47;5036282;28;20041;-62
2023/06/12 00:17:13;;;;;;;0.50;0.50;;;;;;;16.33;71.67;99522.44;5036545;28;20492;-62
2023/06/12 00:19:41;;;;;;;0.70;0.70;;;;;;;16.29;72.04;99520.84;5036497;28;20133;-62
2023/06/12 00:22:12;;;;;;;1.00;0.60;;;;;;;16.19;72.15;99524.53;5036080;28;20045;-62
2023/06/12 00:24:41;;;;;;;0.98;0.80;;;;;;;16.12;72.72;99523.00;5036031;28;20149;-62
2023/06/12 00:27:11;;;;;;;1.30;1.10;;;;;;;16.05;72.71;99520.59;5036061;28;20045;-62
2023/06/12 00:29:40;;;;;;;1.05;0.98;;;;;;;15.96;73.20;99528.53;5034847;28;20309;-64
2023/06/12 00:32:09;;;;;;;0.60;0.60;;;;;;;15.94;73.04;99525.16;5035983;28;20120;-64
2023/06/12 00:34:38;;;;;;;0.90;0.90;;;;;;;15.92;73.21;99526.09;5034563;28;20058;-64
2023/06/12 00:37:07;;;;;;;0.60;0.60;;;;;;;15.79;73.03;99524.69;5035878;28;20568;-62
2023/06/12 00:39:37;;;;;;;0.60;0.60;;;;;;;15.70;73.38;99525.75;5034830;28;20045;-63
2023/06/12 00:42:07;;;;;;;0.90;0.80;;;;;;;15.70;72.86;99530.91;5035720;28;20069;-63
2023/06/12 00:44:36;;;;;;;0.50;0.50;;;;;;;15.73;72.34;99536.00;5035792;28;20057;-63
2023/06/12 00:47:05;;;;;;;0.50;0.50;;;;;;;15.81;72.16;99538.38;5035699;28;20049;-63
2023/06/12 00:49:34;;;;;;;;;;;;;;;15.79;71.73;99527.25;5036012;28;20084;-63
2023/06/12 00:52:04;;;;;;;0.50;0.50;;;;;;;15.67;72.10;99525.81;5035703;28;19921;-63
2023/06/12 00:54:33;;;;;;;0.45;0.45;;;;;;;15.68;71.98;99521.53;5034742;28;20042;-63
2023/06/12 00:57:03;;;;;;;0.60;0.60;;;;;;;15.73;71.54;99525.69;5035547;28;20100;-63
2023/06/12 00:59:32;;;;;;;0.60;0.60;;;;;;;15.74;71.54;99514.50;5035818;28;20558;-63
2023/06/12 01:02:03;;;;;;;0.93;0.90;;;;;;;15.67;71.39;99518.09;5036024;28;20042;-63
2023/06/12 01:04:33;;;;;;;0.80;0.70;;;;;;;15.61;71.92;99525.13;5035632;28;20073;-63
2023/06/12 01:07:11;;;;;;;1.02;0.93;;;;;;;15.51;72.39;99519.34;5035338;28;20049;-63
2023/06/12 01:09:44;;;;;;;0.43;0.43;;;;;;;15.32;72.27;99518.06;5035350;28;20055;-63
2023/06/12 01:12:16;;;;;;;1.80;0.82;;;;;;;15.26;72.90;99523.34;5035257;28;20056;-63
2023/06/12 01:14:46;;;;;;;0.63;0.63;;;;;;;15.16;73.21;99517.56;5035419;28;20037;-63
2023/06/12 01:17:16;;;;;;;;;;;;;;;15.06;73.77;99512.63;5034980;28;20056;-63
2023/06/12 01:19:46;;;;;;;0.90;0.60;;;;;;;15.05;73.67;99513.50;5035132;28;19996;-63
2023/06/12 01:22:20;;;;;;;0.90;0.90;;;;;;;14.99;74.43;99509.38;5035182;28;20069;-63
2023/06/12 01:25:21;;;;;;;0.50;0.50;;;;;;;14.86;74.53;99512.22;5035907;28;20123;-63
2023/06/12 01:28:00;;;;;;;;;;;;;;;14.77;74.77;99515.81;5003212;28;20053;-63
2023/06/12 01:30:54;;;;;;;0.60;0.60;;;;;;;14.61;75.36;99517.84;5035307;28;20310;-63
2023/06/12 01:33:33;;;;;;;1.10;0.95;;;;;;;14.52;75.88;99515.44;5034715;28;20053;-63
2023/06/12 01:36:03;;;;;;;0.43;0.43;;;;;;;14.41;76.20;99514.81;5034627;28;20076;-63
2023/06/12 01:38:35;;;;;;;0.98;0.60;;;;;;;14.27;76.38;99516.78;5035027;28;20041;-63
2023/06/12 01:41:08;;;;;;;1.15;1.05;;;;;;;14.19;76.56;99518.63;5033650;28;20119;-63
2023/06/12 01:43:37;;;;;;;0.57;0.57;;;;;;;14.12;76.71;99511.91;5033712;28;20095;-63
2023/06/12 01:46:06;;;;;;;0.50;0.50;;;;;;;14.02;77.45;99512.94;5035150;28;20045;-63
2023/06/12 01:48:39;;;;;;;2.10;0.88;;;;;;;14.01;77.50;99513.81;5035180;28;20129;-63
2023/06/12 01:51:08;;;;;;;0.40;0.40;;;;;;;13.97;77.67;99513.00;5033362;28;20056;-63
2023/06/12 01:53:36;;;;;;;0.87;0.87;;;;;;;13.93;77.53;99516.50;5033254;28;20124;-63
2023/06/12 01:56:06;;;;;;;1.08;0.55;;;;;;;13.81;78.14;99511.59;5033446;28;20443;-63
2023/06/12 01:58:36;;;;;;;0.95;0.88;;;;;;;13.81;77.89;99516.72;5033053;28;20053;-63
2023/06/12 02:01:15;;;;;;;1.02;0.93;;;;;;;13.86;78.28;99519.22;5034288;28;20049;-63
2023/06/12 02:03:47;;;;;;;0.75;0.75;;;;;;;13.83;78.08;99508.97;5033649;28;20178;-63
2023/06/12 02:06:16;;;;;;;1.70;0.80;;;;;;;13.81;78.12;99519.28;5033407;28;20048;-63
2023/06/12 02:08:46;;;;;;;0.70;0.70;;;;;;;13.72;78.37;99516.03;5034268;28;20381;-63
2023/06/12 02:11:16;;;;;;;1.00;0.75;;;;;;;13.68;78.70;99514.34;5034116;28;20041;-63
2023/06/12 02:13:45;;;;;;;0.80;0.80;;;;;;;13.72;78.91;99522.00;5032919;28;20499;-63
2023/06/12 02:16:21;;;;;;;0.50;0.50;;;;;;;13.70;78.60;99517.78;5034366;28;20064;-63
2023/06/12 02:18:52;;;;;;;0.85;0.85;;;;;;;13.77;78.73;99519.38;5034012;28;20049;-63
2023/06/12 02:21:22;;;;;;;0.35;0.35;;;;;;;13.75;78.65;99516.81;5032835;28;20076;-63
2023/06/12 02:23:51;;;;;;;0.50;0.50;;;;;;;13.72;78.36;99510.91;5032246;28;20048;-63
2023/06/12 02:26:20;;;;;;;0.38;0.38;;;;;;;13.55;78.69;99523.13;5034185;28;20092;-63
2023/06/12 02:29:08;;;;;;;0.80;0.75;;;;;;;13.62;79.15;99524.72;5033164;28;20434;-63
2023/06/12 02:31:41;;;;;;;0.50;0.50;;;;;;;13.63;79.21;99526.44;5033825;28;20049;-63
2023/06/12 02:34:13;;;;;;;0.50;0.50;;;;;;;13.54;78.82;99526.53;5033875;28;20050;-63
2023/06/12 02:36:42;;;;;;;1.23;1.13;;;;;;;13.50;78.92;99524.91;5033741;28;20100;-63
2023/06/12 02:39:18;;;;;;;0.57;0.50;;;;;;;13.48;79.01;99518.97;5033688;28;20124;-63
2023/06/12 02:41:49;;;;;;;0.70;0.70;;;;;;;13.53;79.11;99530.00;5032646;28;20095;-62
2023/06/12 02:44:19;;;;;;;0.80;0.80;;;;;;;13.49;79.13;99533.47;5032471;28;20053;-63
2023/06/12 02:46:53;;;;;;;0.93;0.93;;;;;;;13.51;79.23;99532.56;5033619;28;20057;-63
2023/06/12 02:49:29;;;;;;;1.08;0.98;;;;;;;13.54;79.27;99534.25;5033561;28;20052;-63
2023/06/12 02:51:59;;;;;;;0.40;0.40;;;;;;;13.51;79.12;99534.31;5032468;28;20050;-63
2023/06/12 02:54:28;;;;;;;1.25;1.10;;;;;;;13.52;79.16;99533.41;5032417;28;20049;-63
2023/06/12 02:57:01;;;;;;;1.05;0.70;;;;;;;13.59;78.98;99529.91;5033532;28;20049;-63
2023/06/12 02:59:30;;;;;;;0.68;0.68;;;;;;;13.65;79.13;99529.81;5032540;28;20044;-63
2023/06/12 03:02:04;;;;;;;0.50;0.50;;;;;;;13.72;79.13;99536.53;5033398;28;20045;-63
2023/06/12 03:04:42;;;;;;;0.95;0.50;;;;;;;13.85;78.79;99532.88;5033441;28;20053;-63
2023/06/12 03:07:14;;;;;;;0.52;0.52;;;;;;;13.89;78.55;99539.69;5033764;28;20049;-63
2023/06/12 03:09:45;;;;;;;1.10;0.90;;;;;;;13.90;78.28;99538.78;5033519;28;20049;-63
2023/06/12 03:12:15;;;;;;;1.08;0.82;;;;;;;13.94;78.30;99537.91;5033616;28;20054;-63
2023/06/12 03:14:45;;;;;;;0.82;0.70;;;;;;;13.94;78.65;99543.03;5033348;28;20050;-63
2023/06/12 03:17:14;;;;;;;1.50;1.40;;;;;;;13.91;78.55;99543.91;5032221;28;20055;-63
2023/06/12 03:19:45;;;;;;;0.82;0.80;;;;;;;13.93;78.23;99543.88;5032114;28;20052;-63
2023/06/12 03:22:14;;;;;;;0.68;0.68;;;;;;;13.90;78.54;99556.75;5033163;28;20072;-63
2023/06/12 03:24:43;;;;;;;0.95;0.68;;;;;;;13.92;78.41;99539.63;5033529;28;20141;-63
2023/06/12 03:27:14;;;;;;;0.45;0.45;;;;;;;13.92;78.34;99549.88;5033248;28;20053;-63
2023/06/12 03:29:45;;;;;;;0.40;0.40;;;;;;;13.97;78.55;99542.94;5032374;28;20045;-63
2023/06/12 03:32:14;;;;;;;0.55;0.55;;;;;;;14.00;78.26;99548.03;5032035;28;20124;-63
2023/06/12 03:34:52;;;;;;;2.55;0.90;;;;;;;14.05;78.01;99551.38;5033258;28;20053;-63
2023/06/12 03:37:21;;;;;;;0.63;0.63;;;;;;;14.09;78.14;99550.44;5034687;28;20118;-63
2023/06/12 03:39:50;;;;;;;0.82;0.70;;;;;;;14.13;77.84;99559.81;5035759;28;20049;-63
2023/06/12 03:42:20;;;;;;;0.85;0.85;;;;;;;14.07;77.98;99544.50;5036717;28;20045;-63
2023/06/12 03:44:54;;;;;;;2.83;1.05;;;;;;;14.17;77.67;99566.56;5036892;28;20487;-63
2023/06/12 03:47:25;;;;;;;0.40;0.40;;;;;;;14.23;78.06;99563.88;5037406;28;20068;-63
2023/06/12 03:49:56;;;;;;;;;;;;;;;14.34;77.63;99564.59;5037046;28;20550;-63
2023/06/12 03:52:27;;;;;;;0.50;0.50;;;;;;;14.48;77.26;99562.63;5036981;28;19974;-63
2023/06/12 03:54:57;;;;;;;0.85;0.85;;;;;;;14.61;76.46;99558.94;5036975;28;20101;-63
2023/06/12 03:57:26;;;;;;;0.60;0.60;;;;;;;14.74;75.62;99560.41;5035712;28;20156;-63
2023/06/12 03:59:55;;;;;;;0.97;0.87;;;;;;;14.83;75.01;99550.84;5035689;28;20357;-63
2023/06/12 04:02:24;;;;;;;0.90;0.80;;;;;;;14.91;74.41;99556.66;5035326;28;20125;-63
2023/06/12 04:04:53;;;;;;;0.60;0.60;;;;;;;15.03;74.19;99556.41;5036763;28;20094;-63
2023/06/12 04:07:26;;;;;;;0.32;0.32;;;;;;;15.11;73.63;99557.09;5036586;28;20069;-63
2023/06/12 04:09:55;;;;;;;0.82;0.82;;;;;;;15.16;72.88;99557.84;5036704;28;20125;-63
2023/06/12 04:12:24;;;;;;;1.33;1.13;;;;;;;15.19;72.74;99557.75;5035093;28;20049;-63
2023/06/12 04:14:53;;;;;;;2.00;1.23;;;;;;;15.29;72.47;99554.13;5035341;28;20282;-64
2023/06/12 04:17:22;;;;;;;0.77;0.65;;;;;;;15.38;71.82;99559.06;5035411;28;20038;-63
2023/06/12 04:19:50;;;;;;;1.17;1.10;;;;;;;15.47;71.94;99558.91;5034990;28;20136;-63
2023/06/12 04:22:19;;;;;;;0.77;0.77;;;;;;;15.61;71.61;99556.88;5037734;28;20435;-63
2023/06/12 04:24:52;;;;;;;3.50;1.47;;;;;;;15.71;70.83;99558.34;5036088;28;20045;-64
2023/06/12 04:27:21;;;;;;;0.82;0.80;;;;;;;15.83;70.19;99563.19;5034937;28;20045;-63
2023/06/12 04:29:50;;;;;;;0.50;0.50;;;;;;;15.90;69.72;99564.75;5034927;28;20046;-64
2023/06/12 04:32:19;;;;;;;0.80;0.70;;;;;;;15.94;69.03;99561.22;5036062;28;20057;-64
2023/06/12 04:34:48;;;;;;;1.93;0.63;;;;;;;16.09;68.73;99566.00;5034534;28;20683;-63
2023/06/12 04:37:18;;;;;;;;;;;;;;;16.23;67.88;99562.19;5036519;28;20279;-64
2023/06/12 04:39:49;;;;;;;0.50;0.50;;;;;;;16.30;67.38;99567.16;5034725;28;19975;-64
2023/06/12 04:42:19;;;;;;;1.27;1.17;;;;;;;16.29;66.85;99557.72;5036118;28;20169;-64
2023/06/12 04:44:48;;;;;;;2.63;0.93;;;;;;;16.52;66.76;99570.06;5035717;28;20132;-64
2023/06/12 04:47:18;;;;;;;0.40;0.40;;;;;;;16.67;66.73;99561.94;5035600;28;20075;-64
2023/06/12 04:49:47;;;;;;;0.43;0.43;;;;;;;16.85;66.23;99574.28;5035650;28;20053;-63
2023/06/12 04:52:19;;;;;;;0.73;0.73;;;;;;;16.90;65.58;99569.84;5035043;28;20124;-64
2023/06/12 04:54:50;;;;;;;0.75;0.75;;;;;;;17.01;65.68;99567.00;5035808;28;20045;-64
2023/06/12 04:57:19;;;;;;;2.28;0.80;;;;;;;17.15;65.11;99583.75;5035529;28;20549;-63
2023/06/12 04:59:48;;;;;;;1.40;1.30;;;;;;;17.18;64.55;99581.06;5034308;28;20053;-64
2023/06/12 05:02:17;;;;;;;1.13;1.02;;;;;;;17.30;63.95;99572.13;5034241;28;20053;-64
2023/06/12 05:04:47;;;;;;;0.40;0.40;;;;;;;17.45;63.48;99576.84;5034325;28;20072;-64
2023/06/12 05:07:18;;;;;;;1.95;1.58;;;;;;;17.56;62.98;99579.97;5034141;28;20050;-64
2023/06/12 05:09:52;;;;;;;1.35;0.80;;;;;;;17.67;62.66;99577.91;5035586;28;20046;-64
2023/06/12 05:12:21;;;;;;;0.40;0.40;;;;;;;17.71;62.14;99576.06;5034447;28;20041;-63
2023/06/12 05:14:50;;;;;;;0.97;0.97;;;;;;;17.73;61.77;99567.38;5033958;28;20049;-63
2023/06/12 05:17:19;;;;;;;1.40;1.00;;;;;;;17.81;61.73;99567.13;5034225;28;20041;-63
2023/06/12 05:19:49;;;;;;;0.60;0.45;;;;;;;17.90;61.68;99574.59;5034215;28;20052;-64
2023/06/12 05:22:21;;;;;;;1.27;0.93;;;;;;;17.93;61.76;99571.91;5035627;28;20050;-63
2023/06/12 05:24:52;;;;;;;0.75;0.73;;;;;;;18.05;61.24;99571.50;5033975;28;20483;-64
2023/06/12 05:27:22;;;;;;;0.68;0.68;;;;;;;18.17;61.34;99565.94;5035008;28;20053;-64
2023/06/12 05:29:52;;;;;;;1.10;1.00;;;;;;;18.14;61.21;99572.97;5035175;28;20076;-63
2023/06/12 05:32:21;;;;;;;1.20;1.10;;;;;;;18.21;61.08;99580.44;5035134;28;20132;-64
2023/06/12 05:34:50;;;;;;;1.13;1.00;;;;;;;18.17;60.69;99549.59;5034535;28;20049;-63
2023/06/12 05:37:19;;;;;;;1.35;1.25;;;;;;;18.33;59.84;99580.03;5033545;28;20045;-64
2023/06/12 05:39:48;;;;;;;0.97;0.77;;;;;;;18.33;59.66;99579.22;5033534;28;20056;-64
2023/06/12 05:42:18;;;;;;;1.08;0.98;;;;;;;18.32;59.48;99575.78;5034660;28;20052;-64
2023/06/12 05:44:47;;;;;;;0.55;0.55;;;;;;;18.36;59.52;99574.75;5033399;28;20499;-63
2023/06/12 05:47:18;;;;;;;0.60;0.60;;;;;;;18.42;59.45;99579.75;5034857;28;20488;-64
2023/06/12 05:49:47;;;;;;;0.60;0.60;;;;;;;18.51;59.46;99576.88;5034498;28;20049;-64
2023/06/12 05:52:16;;;;;;;0.65;0.65;;;;;;;18.54;59.75;99583.66;5033238;28;20057;-64
2023/06/12 05:54:45;;;;;;;0.50;0.50;;;;;;;18.58;59.93;99580.91;5033480;28;20464;-63
2023/06/12 05:57:15;;;;;;;1.00;0.90;;;;;;;18.64;59.67;99578.09;5034309;28;20053;-64
2023/06/12 05:59:47;;;;;;;0.60;0.60;;;;;;;18.81;59.61;99576.69;5033878;28;20071;-64
2023/06/12 06:02:17;;;;;;;1.05;0.82;;;;;;;18.87;59.40;99571.28;5033644;28;20075;-65
2023/06/12 06:04:46;;;;;;;;;;;;;;;18.96;59.18;99576.97;5033092;28;20121;-66
2023/06/12 06:07:15;;;;;;;0.83;0.70;;;;;;;19.01;58.58;99580.22;5033545;28;20382;-65
2023/06/12 06:09:48;;;;;;;1.33;1.15;;;;;;;19.16;58.61;99584.00;5034370;28;20053;-66
2023/06/12 06:12:18;;;;;;;0.60;0.60;;;;;;;19.06;58.43;99580.91;5033105;28;20041;-66
2023/06/12 06:14:49;;;;;;;0.80;0.70;;;;;;;19.19;58.40;99589.06;5033937;28;20069;-66
2023/06/12 06:17:19;;;;;;;0.88;0.88;;;;;;;19.34;57.75;99580.72;5034325;28;20061;-67
2023/06/12 06:19:50;;;;;;;1.27;0.68;;;;;;;19.42;57.32;99585.63;5033950;28;20053;-66
2023/06/12 06:22:22;;;;;;;3.60;0.85;;;;;;;19.52;57.05;99586.97;5033411;28;20048;-66
2023/06/12 06:24:52;;;;;;;0.40;0.40;;;;;;;19.48;56.51;99580.25;5032360;28;20491;-66
2023/06/12 06:27:21;;;;;;;0.40;0.40;;;;;;;19.55;56.50;99582.53;5032392;28;20495;-66
2023/06/12 06:30:00;;;;;;;1.85;0.70;;;;;;;19.72;56.78;99577.56;5032763;28;20047;-66
2023/06/12 06:32:29;;;;;;;;;;;;;;;19.92;56.82;99581.91;5043729;28;20048;-66
2023/06/12 06:35:02;;;;;;;0.70;0.70;;;;;;;19.96;56.02;99576.53;5049157;28;19924;-65
2023/06/12 06:37:31;;;;;;;1.00;0.90;;;;;;;20.02;55.16;99581.50;5032714;28;20139;-66
2023/06/12 06:40:00;;;;;;;0.43;0.43;;;;;;;20.13;54.37;99577.63;5033643;28;20068;-67
2023/06/12 06:42:29;;;;;;;0.45;0.45;;;;;;;20.14;52.83;99576.69;5046763;28;20487;-66
2023/06/12 06:45:07;;;;;;;0.40;0.40;;;;;;;20.19;52.47;99573.03;5032195;28;20486;-66
2023/06/12 06:47:36;;;;;;;1.35;0.85;;;;;;;20.25;51.60;99575.38;5029020;28;20052;-67
2023/06/12 06:50:08;;;;;;;0.52;0.52;;;;;;;20.30;50.74;99575.22;5012409;28;20483;-66
2023/06/12 06:52:37;;;;;;;0.75;0.75;;;;;;;20.37;50.49;99577.44;5012358;28;20041;-66
2023/06/12 06:55:08;;;;;;;2.03;0.90;;;;;;;20.52;50.53;99578.56;5014013;28;20051;-66
2023/06/12 06:57:38;;;;;;;0.70;0.70;;;;;;;20.60;49.83;99585.13;5014070;28;20400;-67
2023/06/12 07:00:11;;;;;;;2.47;1.05;;;;;;;20.49;49.57;99584.72;5013637;28;20128;-66
2023/06/12 07:02:43;;;;;;;0.45;0.45;;;;;;;20.61;49.65;99583.38;5013705;28;20053;-67
2023/06/12 07:05:16;;;;;;;0.75;0.75;;;;;;;20.51;49.68;99579.47;5012523;28;20062;-66
2023/06/12 07:07:47;;;;;;;0.85;0.85;;;;;;;20.55;49.64;99583.63;5013681;28;20057;-66
2023/06/12 07:10:32;;;;;;;0.47;0.47;;;;;;;20.71;49.44;99582.03;5015445;28;20045;-66
2023/06/12 07:13:02;;;;;;;0.65;0.60;;;;;;;20.78;49.05;99585.25;5017623;28;20053;-66
2023/06/12 07:15:41;;;;;;;0.40;0.40;;;;;;;20.82;48.87;99582.44;5018026;28;20042;-66
2023/06/12 07:18:11;;;;;;;1.90;1.15;;;;;;;20.83;48.48;99583.28;5001438;28;20468;-66
2023/06/12 07:20:41;;;;;;;0.93;0.70;;;;;;;20.95;48.60;99582.72;5017705;28;20060;-68
2023/06/12 07:23:10;;;;;;;0.70;0.70;;;;;;;21.03;48.12;99570.25;5016914;28;20069;-66
2023/06/12 07:25:39;;;;;;;0.57;0.57;;;;;;;21.14;47.72;99574.06;5017529;28;20449;-67
2023/06/12 07:28:08;;;;;;;0.50;0.50;;;;;;;21.13;46.88;99572.41;5016276;28;20046;-67
2023/06/12 07:30:38;;;;;;;0.45;0.45;;;;;;;21.16;46.66;99577.44;5016140;28;20041;-67
2023/06/12 07:33:08;;;;;;;0.85;0.73;;;;;;;21.24;46.02;99574.50;5016419;28;20144;-67
2023/06/12 07:35:38;;;;;;;0.93;0.80;;;;;;;21.23;46.10;99576.28;5016404;28;20046;-67
2023/06/12 07:38:29;;;;;;;0.47;0.43;;;;;;;21.40;45.89;99575.50;5020252;28;20412;-67
2023/06/12 07:40:58;;;;;;;0.40;0.40;;;;;;;21.46;45.66;99571.75;5035954;28;20557;-67
2023/06/12 07:43:27;;;;;;;1.10;1.05;;;;;;;21.46;45.69;99569.16;5037055;28;20103;-66
2023/06/12 07:45:56;;;;;;;1.15;0.80;;;;;;;21.60;45.99;99574.53;5035490;28;20048;-66
2023/06/12 07:48:26;;;;;;;0.60;0.60;;;;;;;21.66;45.52;99569.91;5035535;28;20059;-66
2023/06/12 07:50:55;;;;;;;0.47;0.47;;;;;;;21.82;45.61;99567.41;5036516;28;20570;-67
2023/06/12 07:53:25;;;;;;;0.40;0.40;;;;;;;21.81;44.56;99566.56;5035993;28;20519;-66
2023/06/12 07:56:11;;;;;;;0.55;0.55;;;;;;;21.92;44.12;99572.13;5036873;28;20041;-66
2023/06/12 07:58:42;;;;;;;0.40;0.40;;;;;;;21.98;44.36;99568.38;5036652;28;20048;-66
2023/06/12 08:01:13;;;;;;;0.50;0.50;;;;;;;22.09;44.25;99571.31;5035351;28;20492;-67
2023/06/12 08:03:44;;;;;;;0.40;0.40;;;;;;;21.91;43.86;99561.78;5036479;28;20095;-66
2023/06/12 08:06:15;;;;;;;0.73;0.73;;;;;;;21.94;43.38;99572.91;5036485;28;20072;-64
2023/06/12 08:08:47;;;;;;;1.50;0.82;;;;;;;22.06;43.48;99565.41;5036418;28;20049;-64
2023/06/12 08:11:19;;;;;;;0.63;0.50;;;;;;;22.31;43.48;99565.88;5035089;28;20045;-64
2023/06/12 08:13:51;;;;;;;0.60;0.60;;;;;;;22.42;43.69;99564.41;5036298;28;20057;-65
2023/06/12 08:16:24;;;;;;;0.88;0.80;;;;;;;22.52;43.31;99560.44;5036401;28;20052;-65
2023/06/12 08:18:57;;;;;;;0.57;0.57;;;;;;;22.43;43.16;99545.28;5035199;28;20053;-64
2023/06/12 08:21:31;;;;;;;0.80;0.77;;;;;;;22.47;43.58;99562.41;5035844;28;20450;-64
2023/06/12 08:24:00;;;;;;;1.27;0.60;;;;;;;22.54;43.09;99561.19;5036174;28;20046;-64
2023/06/12 08:26:31;;;;;;;0.77;0.77;;;;;;;22.64;43.07;99559.84;5036030;28;20054;-64
2023/06/12 08:29:01;;;;;;;1.10;0.95;;;;;;;22.75;42.86;99555.84;5035169;28;20046;-64
2023/06/12 08:31:37;;;;;;;0.57;0.57;;;;;;;22.80;42.04;99559.00;5036264;28;20049;-64
2023/06/12 08:34:08;;;;;;;0.63;0.63;;;;;;;22.84;41.98;99560.56;5035820;28;20053;-64
2023/06/12 08:36:39;;;;;;;11.80;1.77;;;;;;;22.88;42.77;99556.84;5034800;28;20443;-65
2023/06/12 08:39:09;;;;;;;1.67;0.88;;;;;;;22.96;42.11;99552.09;5034619;28;20050;-65
2023/06/12 08:41:53;;;;;;;0.98;0.93;;;;;;;22.93;41.46;99547.03;5036156;28;20536;-65
2023/06/12 08:44:23;;;;;;;1.25;1.15;;;;;;;22.91;41.16;99546.28;5036174;28;20049;-65
2023/06/12 08:46:56;;;;;;;0.68;0.68;;;;;;;22.88;40.98;99536.88;5035848;28;20046;-63
2023/06/12 08:49:27;;;;;;;0.70;0.70;;;;;;;22.90;41.16;99542.84;5035944;28;20466;-63
2023/06/12 08:51:56;;;;;;;2.92;0.80;;;;;;;22.92;40.69;99543.59;5036022;28;20477;-64
2023/06/12 08:54:25;;;;;;;0.40;0.40;;;;;;;23.01;41.09;99537.88;5035654;28;20053;-64
2023/06/12 08:56:57;;;;;;;0.57;0.57;;;;;;;23.28;41.12;99543.38;5035821;28;20044;-64
2023/06/12 08:59:26;;;;;;;0.40;0.40;;;;;;;23.22;40.74;99535.91;5036211;28;20041;-64
2023/06/12 09:01:57;;;;;;;1.23;0.93;;;;;;;23.13;40.56;99541.63;5035412;28;20514;-64
2023/06/12 09:04:54;;;;;;;1.40;1.05;;;;;;;23.32;40.79;99537.09;5035400;28;20045;-64
2023/06/12 09:07:26;;;;;;;0.45;0.45;;;;;;;23.58;40.70;99535.66;5035282;28;20113;-64
2023/06/12 09:09:55;;;;;;;0.73;0.40;;;;;;;23.69;39.81;99544.56;5035717;28;20096;-65
2023/06/12 09:12:36;;;;;;;1.00;0.80;;;;;;;23.41;39.60;99547.03;5035509;28;20522;-65
2023/06/12 09:15:06;;;;;;;0.55;0.55;;;;;;;23.36;39.56;99554.25;5035177;28;20053;-65
2023/06/12 09:17:37;;;;;;;1.15;1.05;;;;;;;23.28;39.45;99551.19;5035737;28;20069;-65
2023/06/12 09:20:15;;;;;;;0.80;0.80;;;;;;;23.30;39.38;99554.53;5035061;28;20099;-64
2023/06/12 09:23:01;;;;;;;1.17;1.08;;;;;;;23.22;39.66;99548.94;5035259;28;20049;-64
2023/06/12 09:25:35;;;;;;;0.68;0.68;;;;;;;23.44;39.62;99543.41;5034100;28;20487;-64
2023/06/12 09:28:04;;;;;;;1.33;0.95;;;;;;;23.55;39.36;99543.66;5033681;28;20133;-64
2023/06/12 09:30:34;;;;;;;0.30;0.30;;;;;;;23.70;39.66;99542.78;5034885;28;20048;-64
2023/06/12 09:33:05;;;;;;;0.75;0.70;;;;;;;23.75;39.11;99540.78;5034219;28;20061;-65
2023/06/12 09:35:51;;;;;;;0.28;0.28;;;;;;;23.85;38.53;99540.13;5034258;28;20511;-65
2023/06/12 09:38:29;;;;;;;0.32;0.32;;;;;;;23.90;38.73;99534.66;5034849;28;20053;-64
2023/06/12 09:40:58;;;;;;;1.55;1.05;;;;;;;23.87;38.31;99530.47;5035218;28;20049;-65
2023/06/12 09:43:28;;;;;;;0.52;0.52;;;;;;;23.93;38.47;99519.69;5034641;28;20069;-64
2023/06/12 09:45:58;;;;;;;2.03;1.38;;;;;;;23.95;38.47;99536.09;5033518;28;20045;-64
2023/06/12 09:48:33;;;;;;;0.43;0.43;;;;;;;23.84;38.52;99530.66;5034570;28;20487;-63
2023/06/12 09:51:06;;;;;;;0.40;0.40;;;;;;;23.47;38.75;99533.66;5034510;28;20045;-64
2023/06/12 09:53:38;;;;;;;0.73;0.73;;;;;;;23.61;39.24;99528.50;5034338;28;20053;-63
2023/06/12 09:56:09;;;;;;;0.73;0.73;;;;;;;23.77;38.48;99523.28;5034552;28;20120;-64
2023/06/12 09:58:39;;;;;;;0.43;0.43;;;;;;;23.73;37.56;99524.38;5034352;28;20049;-64
2023/06/12 10:01:08;;;;;;;0.82;0.75;;;;;;;23.76;37.37;99519.81;5034272;28;20045;-64
2023/06/12 10:03:39;;;;;;;;;;;;;;;23.86;37.16;99520.97;5034628;28;20049;-64
2023/06/12 10:06:13;;;;;;;0.40;0.40;;;;;;;23.96;36.87;99514.31;5034714;28;19921;-65
2023/06/12 10:08:43;;;;;;;0.30;0.30;;;;;;;23.91;36.71;99518.09;5034609;28;20044;-65
2023/06/12 10:11:12;;;;;;;0.50;0.50;;;;;;;23.73;36.33;99512.16;5034577;28;20052;-65
2023/06/12 10:13:41;;;;;;;0.52;0.52;;;;;;;23.54;36.79;99511.53;5034396;28;20124;-64
2023/06/12 10:16:11;;;;;;;0.35;0.35;;;;;;;23.58;36.67;99507.00;5033061;28;20492;-64
2023/06/12 10:18:41;;;;;;;0.52;0.52;;;;;;;23.66;37.42;99508.22;5034274;28;20373;-64
2023/06/12 10:21:12;;;;;;;0.30;0.30;;;;;;;23.99;37.62;99506.28;5033238;28;20079;-65
2023/06/12 10:23:42;;;;;;;0.82;0.80;;;;;;;23.99;36.96;99503.69;5033958;28;20132;-65
2023/06/12 10:26:11;;;;;;;0.75;0.60;;;;;;;24.10;36.67;99504.84;5033765;28;20038;-64
2023/06/12 10:28:40;;;;;;;0.40;0.40;;;;;;;24.34;36.34;99498.19;5034030;28;20048;-64
2023/06/12 10:31:12;;;;;;;1.17;0.77;;;;;;;24.53;36.12;99493.53;5033812;28;20522;-65
2023/06/12 10:34:02;;;;;;;0.60;0.52;;;;;;;24.53;35.32;99501.38;5033557;28;20077;-65
2023/06/12 10:36:41;;;;;;;0.80;0.80;;;;;;;24.37;34.92;99496.25;5033893;28;20045;-65
2023/06/12 10:39:17;;;;;;;0.70;0.70;;;;;;;24.58;35.71;99494.09;5034244;28;20438;-64
2023/06/12 10:41:53;;;;;;;0.40;0.40;;;;;;;24.73;35.95;99485.34;5033743;28;20069;-64
2023/06/12 10:44:39;;;;;;;0.50;0.50;;;;;;;24.79;36.54;99489.34;5034169;28;20041;-64
2023/06/12 10:47:19;;;;;;;0.68;0.60;;;;;;;24.80;36.12;99485.81;5034182;28;20178;-64
2023/06/12 10:49:57;;;;;;;0.50;0.50;;;;;;;24.96;37.16;99483.94;5033881;28;20041;-65
2023/06/12 10:52:27;;;;;;;0.45;0.45;;;;;;;24.99;37.57;99470.69;5033909;28;20053;-63
2023/06/12 10:55:16;;;;;;;0.40;0.40;;;;;;;25.23;38.67;99469.97;5033555;28;20141;-63
2023/06/12 10:57:49;;;;;;;0.50;0.50;;;;;;;25.00;36.19;99473.19;5033545;28;20587;-64
2023/06/12 11:00:20;;;;;;;0.40;0.40;;;;;;;24.72;35.94;99465.38;5033468;28;20128;-64
2023/06/12 11:02:58;;;;;;;0.40;0.40;;;;;;;24.73;35.50;99458.38;5032348;28;20462;-65
2023/06/12 11:05:29;;;;;;;;;;;;;;;24.92;34.55;99465.03;5034110;28;20049;-65
2023/06/12 11:08:02;;;;;;;0.55;0.55;;;;;;;24.99;34.27;99468.91;5033225;28;19921;-64
2023/06/12 11:10:32;;;;;;;1.05;0.70;;;;;;;25.13;34.90;99468.03;5033435;28;20050;-64
2023/06/12 11:13:03;;;;;;;0.60;0.60;;;;;;;24.94;33.93;99470.97;5033515;28;20183;-65
2023/06/12 11:15:41;;;;;;;0.98;0.88;;;;;;;24.91;35.02;99455.50;5033345;28;20137;-64
2023/06/12 11:18:10;;;;;;;1.27;1.17;;;;;;;24.72;34.00;99462.78;5033250;28;20087;-64
2023/06/12 11:20:40;;;;;;;0.70;0.70;;;;;;;24.76;34.04;99453.84;5033201;28;20442;-64
2023/06/12 11:23:10;;;;;;;0.40;0.40;;;;;;;24.78;33.97;99452.00;5033251;28;20069;-64
2023/06/12 11:25:44;;;;;;;0.40;0.40;;;;;;;24.71;33.97;99440.22;5032595;28;20164;-64
2023/06/12 11:28:15;;;;;;;0.40;0.40;;;;;;;24.73;33.82;99445.34;5033341;28;20065;-64
2023/06/12 11:30:48;;;;;;;0.40;0.40;;;;;;;25.01;35.90;99433.09;5033447;28;20167;-64
2023/06/12 11:33:37;;;;;;;0.38;0.38;;;;;;;25.22;35.29;99441.31;5032962;28;20054;-65
2023/06/12 11:36:06;;;;;;;0.45;0.45;;;;;;;25.22;34.19;99442.16;5033239;28;20103;-64
2023/06/12 11:38:37;;;;;;;0.40;0.40;;;;;;;24.89;33.64;99443.47;5033104;28;20034;-66
2023/06/12 11:41:11;;;;;;;0.50;0.50;;;;;;;24.36;33.84;99433.69;5032206;28;20045;-65
2023/06/12 11:43:44;;;;;;;0.45;0.45;;;;;;;23.98;34.22;99428.16;5032998;28;20050;-64
2023/06/12 11:46:13;;;;;;;0.47;0.47;;;;;;;24.02;34.62;99435.72;5015968;28;20056;-63
2023/06/12 11:48:42;;;;;;;0.40;0.40;;;;;;;24.02;34.79;99425.28;5032899;28;20077;-63
2023/06/12 11:51:14;;;;;;;0.30;0.30;;;;;;;24.29;35.46;99421.97;5033048;28;20041;-64
2023/06/12 11:53:44;;;;;;;0.43;0.43;;;;;;;24.25;34.99;99433.53;5033278;28;20057;-64
2023/06/12 11:56:13;;;;;;;0.70;0.70;;;;;;;24.19;34.77;99433.88;5032877;28;20073;-65
2023/06/12 11:58:45;;;;;;;0.60;0.60;;;;;;;24.11;33.98;99417.88;5036124;28;20072;-64